sensor_id;sensor_type;location;lat;lon;timestamp;P1;durP1;ratioP1;P2;durP2;ratioP2
40729;SDS011;26418;50.070;8.436;2023-07-28T00:01:33;3.38;;;3.08;;
40729;SDS011;26418;50.070;8.436;2023-07-28T00:03:58;4.72;;;2.72;;
40729;SDS011;26418;50.070;8.436;2023-07-28T00:06:24;4.28;;;2.92;;
40729;SDS011;26418;50.070;8.436;2023-07-28T00:08:49;4.07;;;2.60;;
40729;SDS011;26418;50.070;8.436;2023-07-28T00:11:15;3.92;;;3.13;;
40729;SDS011;26418;50.070;8.436;2023-07-28T00:13:41;3.50;;;2.58;;
40729;SDS011;26418;50.070;8.436;2023-07-28T00:16:08;7.15;;;3.13;;
40729;SDS011;26418;50.070;8.436;2023-07-28T00:18:35;4.45;;;2.45;;
40729;SDS011;26418;50.070;8.436;2023-07-28T00:21:01;5.47;;;2.47;;
40729;SDS011;26418;50.070;8.436;2023-07-28T00:23:27;4.63;;;3.13;;
40729;SDS011;26418;50.070;8.436;2023-07-28T00:25:53;3.90;;;1.95;;
40729;SDS011;26418;50.070;8.436;2023-07-28T00:28:19;3.50;;;1.75;;
40729;SDS011;26418;50.070;8.436;2023-07-28T00:30:48;4.70;;;2.75;;
40729;SDS011;26418;50.070;8.436;2023-07-28T00:33:14;3.15;;;2.45;;
40729;SDS011;26418;50.070;8.436;2023-07-28T00:35:40;6.10;;;2.90;;
40729;SDS011;26418;50.070;8.436;2023-07-28T00:38:06;5.82;;;2.75;;
40729;SDS011;26418;50.070;8.436;2023-07-28T00:40:31;5.53;;;2.45;;
40729;SDS011;26418;50.070;8.436;2023-07-28T00:42:57;3.47;;;2.55;;
40729;SDS011;26418;50.070;8.436;2023-07-28T00:45:22;3.30;;;2.58;;
40729;SDS011;26418;50.070;8.436;2023-07-28T00:47:48;3.00;;;2.13;;
40729;SDS011;26418;50.070;8.436;2023-07-28T00:50:14;3.13;;;2.42;;
40729;SDS011;26418;50.070;8.436;2023-07-28T00:52:39;3.67;;;3.05;;
40729;SDS011;26418;50.070;8.436;2023-07-28T00:55:06;5.55;;;3.30;;
40729;SDS011;26418;50.070;8.436;2023-07-28T00:57:32;4.43;;;2.58;;
40729;SDS011;26418;50.070;8.436;2023-07-28T01:00:01;5.25;;;3.20;;
40729;SDS011;26418;50.070;8.436;2023-07-28T01:02:27;3.90;;;2.72;;
40729;SDS011;26418;50.070;8.436;2023-07-28T01:04:52;4.78;;;3.03;;
40729;SDS011;26418;50.070;8.436;2023-07-28T01:07:27;3.45;;;2.70;;
40729;SDS011;26418;50.070;8.436;2023-07-28T01:10:00;3.15;;;2.67;;
40729;SDS011;26418;50.070;8.436;2023-07-28T01:12:30;3.13;;;2.20;;
40729;SDS011;26418;50.070;8.436;2023-07-28T01:14:55;4.07;;;2.65;;
40729;SDS011;26418;50.070;8.436;2023-07-28T01:17:21;3.90;;;2.65;;
40729;SDS011;26418;50.070;8.436;2023-07-28T01:19:49;3.72;;;2.75;;
40729;SDS011;26418;50.070;8.436;2023-07-28T01:25:17;4.57;;;2.53;;
40729;SDS011;26418;50.070;8.436;2023-07-28T01:27:47;4.25;;;2.75;;
40729;SDS011;26418;50.070;8.436;2023-07-28T01:30:15;3.05;;;2.75;;
40729;SDS011;26418;50.070;8.436;2023-07-28T01:32:41;4.18;;;2.88;;
40729;SDS011;26418;50.070;8.436;2023-07-28T01:35:07;5.97;;;3.42;;
40729;SDS011;26418;50.070;8.436;2023-07-28T01:37:33;4.15;;;2.97;;
40729;SDS011;26418;50.070;8.436;2023-07-28T01:39:58;5.53;;;2.85;;
40729;SDS011;26418;50.070;8.436;2023-07-28T01:42:24;3.83;;;2.83;;
40729;SDS011;26418;50.070;8.436;2023-07-28T01:44:50;3.92;;;2.75;;
40729;SDS011;26418;50.070;8.436;2023-07-28T01:47:15;3.53;;;2.63;;
40729;SDS011;26418;50.070;8.436;2023-07-28T01:49:41;4.63;;;3.10;;
40729;SDS011;26418;50.070;8.436;2023-07-28T01:52:07;5.10;;;3.25;;
40729;SDS011;26418;50.070;8.436;2023-07-28T01:54:32;4.35;;;2.90;;
40729;SDS011;26418;50.070;8.436;2023-07-28T01:56:58;4.05;;;3.00;;
40729;SDS011;26418;50.070;8.436;2023-07-28T01:59:23;3.50;;;2.95;;
40729;SDS011;26418;50.070;8.436;2023-07-28T02:01:49;4.80;;;2.83;;
40729;SDS011;26418;50.070;8.436;2023-07-28T02:04:15;4.07;;;3.20;;
40729;SDS011;26418;50.070;8.436;2023-07-28T02:06:41;4.25;;;2.78;;
40729;SDS011;26418;50.070;8.436;2023-07-28T02:09:06;4.13;;;3.13;;
40729;SDS011;26418;50.070;8.436;2023-07-28T02:11:32;5.22;;;3.15;;
40729;SDS011;26418;50.070;8.436;2023-07-28T02:13:57;3.47;;;2.72;;
40729;SDS011;26418;50.070;8.436;2023-07-28T02:16:23;4.55;;;3.22;;
40729;SDS011;26418;50.070;8.436;2023-07-28T02:18:49;4.40;;;3.53;;
40729;SDS011;26418;50.070;8.436;2023-07-28T02:21:15;4.38;;;2.92;;
40729;SDS011;26418;50.070;8.436;2023-07-28T02:23:40;3.28;;;2.40;;
40729;SDS011;26418;50.070;8.436;2023-07-28T02:26:06;4.30;;;3.28;;
40729;SDS011;26418;50.070;8.436;2023-07-28T02:28:31;5.88;;;3.63;;
40729;SDS011;26418;50.070;8.436;2023-07-28T02:30:57;5.30;;;4.35;;
40729;SDS011;26418;50.070;8.436;2023-07-28T02:33:23;5.45;;;3.30;;
40729;SDS011;26418;50.070;8.436;2023-07-28T02:35:48;5.50;;;2.85;;
40729;SDS011;26418;50.070;8.436;2023-07-28T02:38:14;5.50;;;3.53;;
40729;SDS011;26418;50.070;8.436;2023-07-28T02:40:39;4.43;;;3.08;;
40729;SDS011;26418;50.070;8.436;2023-07-28T02:43:05;7.45;;;3.85;;
40729;SDS011;26418;50.070;8.436;2023-07-28T02:45:30;5.15;;;3.42;;
40729;SDS011;26418;50.070;8.436;2023-07-28T02:47:56;5.90;;;4.28;;
40729;SDS011;26418;50.070;8.436;2023-07-28T02:50:21;6.88;;;3.45;;
40729;SDS011;26418;50.070;8.436;2023-07-28T02:52:48;3.50;;;2.75;;
40729;SDS011;26418;50.070;8.436;2023-07-28T02:55:13;4.45;;;3.45;;
40729;SDS011;26418;50.070;8.436;2023-07-28T02:57:39;4.85;;;3.33;;
40729;SDS011;26418;50.070;8.436;2023-07-28T03:00:05;6.15;;;3.15;;
40729;SDS011;26418;50.070;8.436;2023-07-28T03:02:32;4.82;;;2.78;;
40729;SDS011;26418;50.070;8.436;2023-07-28T03:04:58;6.05;;;4.85;;
40729;SDS011;26418;50.070;8.436;2023-07-28T03:07:23;6.03;;;3.65;;
40729;SDS011;26418;50.070;8.436;2023-07-28T03:09:49;4.63;;;3.92;;
40729;SDS011;26418;50.070;8.436;2023-07-28T03:12:14;8.25;;;4.03;;
40729;SDS011;26418;50.070;8.436;2023-07-28T03:14:40;5.80;;;3.40;;
40729;SDS011;26418;50.070;8.436;2023-07-28T03:17:05;5.10;;;3.63;;
40729;SDS011;26418;50.070;8.436;2023-07-28T03:19:31;6.63;;;3.95;;
40729;SDS011;26418;50.070;8.436;2023-07-28T03:21:56;6.10;;;3.45;;
40729;SDS011;26418;50.070;8.436;2023-07-28T03:24:22;6.50;;;4.28;;
40729;SDS011;26418;50.070;8.436;2023-07-28T03:26:47;6.60;;;5.00;;
40729;SDS011;26418;50.070;8.436;2023-07-28T03:29:13;4.47;;;3.58;;
40729;SDS011;26418;50.070;8.436;2023-07-28T03:31:38;6.05;;;4.03;;
40729;SDS011;26418;50.070;8.436;2023-07-28T03:34:04;4.50;;;3.22;;
40729;SDS011;26418;50.070;8.436;2023-07-28T03:36:29;5.15;;;3.92;;
40729;SDS011;26418;50.070;8.436;2023-07-28T03:38:55;4.60;;;3.70;;
40729;SDS011;26418;50.070;8.436;2023-07-28T03:41:21;6.30;;;3.83;;
40729;SDS011;26418;50.070;8.436;2023-07-28T03:43:46;11.88;;;3.95;;
40729;SDS011;26418;50.070;8.436;2023-07-28T03:46:12;7.18;;;4.00;;
40729;SDS011;26418;50.070;8.436;2023-07-28T03:48:37;5.15;;;3.70;;
40729;SDS011;26418;50.070;8.436;2023-07-28T03:51:03;5.90;;;3.83;;
40729;SDS011;26418;50.070;8.436;2023-07-28T03:53:29;4.30;;;3.00;;
40729;SDS011;26418;50.070;8.436;2023-07-28T03:55:55;4.68;;;2.85;;
40729;SDS011;26418;50.070;8.436;2023-07-28T03:58:24;3.15;;;2.30;;
40729;SDS011;26418;50.070;8.436;2023-07-28T04:00:51;4.85;;;3.00;;
40729;SDS011;26418;50.070;8.436;2023-07-28T04:03:18;3.28;;;2.75;;
40729;SDS011;26418;50.070;8.436;2023-07-28T04:05:43;5.35;;;3.67;;
40729;SDS011;26418;50.070;8.436;2023-07-28T04:08:09;6.65;;;3.67;;
40729;SDS011;26418;50.070;8.436;2023-07-28T04:10:34;5.68;;;3.10;;
40729;SDS011;26418;50.070;8.436;2023-07-28T04:13:00;3.97;;;3.05;;
40729;SDS011;26418;50.070;8.436;2023-07-28T04:15:25;4.35;;;3.38;;
40729;SDS011;26418;50.070;8.436;2023-07-28T04:17:51;5.68;;;3.60;;
40729;SDS011;26418;50.070;8.436;2023-07-28T04:20:16;4.57;;;3.10;;
40729;SDS011;26418;50.070;8.436;2023-07-28T04:22:42;6.07;;;3.03;;
40729;SDS011;26418;50.070;8.436;2023-07-28T04:25:07;5.93;;;3.38;;
40729;SDS011;26418;50.070;8.436;2023-07-28T04:27:33;3.58;;;2.75;;
40729;SDS011;26418;50.070;8.436;2023-07-28T04:29:59;6.57;;;2.65;;
40729;SDS011;26418;50.070;8.436;2023-07-28T04:32:24;6.65;;;3.17;;
40729;SDS011;26418;50.070;8.436;2023-07-28T04:34:51;4.32;;;2.85;;
40729;SDS011;26418;50.070;8.436;2023-07-28T04:37:17;5.95;;;3.40;;
40729;SDS011;26418;50.070;8.436;2023-07-28T04:39:42;3.55;;;2.63;;
40729;SDS011;26418;50.070;8.436;2023-07-28T04:42:08;3.85;;;3.20;;
40729;SDS011;26418;50.070;8.436;2023-07-28T04:44:34;5.30;;;2.42;;
40729;SDS011;26418;50.070;8.436;2023-07-28T04:47:00;5.38;;;3.30;;
40729;SDS011;26418;50.070;8.436;2023-07-28T04:49:25;3.55;;;2.75;;
40729;SDS011;26418;50.070;8.436;2023-07-28T04:51:51;2.80;;;2.50;;
40729;SDS011;26418;50.070;8.436;2023-07-28T04:54:16;5.50;;;3.00;;
40729;SDS011;26418;50.070;8.436;2023-07-28T04:56:42;3.42;;;2.28;;
40729;SDS011;26418;50.070;8.436;2023-07-28T04:59:07;5.25;;;2.35;;
40729;SDS011;26418;50.070;8.436;2023-07-28T05:01:33;4.63;;;2.35;;
40729;SDS011;26418;50.070;8.436;2023-07-28T05:03:58;3.15;;;2.28;;
40729;SDS011;26418;50.070;8.436;2023-07-28T05:06:24;3.78;;;2.47;;
40729;SDS011;26418;50.070;8.436;2023-07-28T05:08:50;4.22;;;2.35;;
40729;SDS011;26418;50.070;8.436;2023-07-28T05:11:15;5.40;;;2.45;;
40729;SDS011;26418;50.070;8.436;2023-07-28T05:13:41;3.15;;;2.00;;
40729;SDS011;26418;50.070;8.436;2023-07-28T05:16:06;2.00;;;1.80;;
40729;SDS011;26418;50.070;8.436;2023-07-28T05:18:31;4.78;;;1.98;;
40729;SDS011;26418;50.070;8.436;2023-07-28T05:20:57;4.95;;;2.08;;
40729;SDS011;26418;50.070;8.436;2023-07-28T05:23:22;2.20;;;1.88;;
40729;SDS011;26418;50.070;8.436;2023-07-28T05:25:48;2.53;;;1.60;;
40729;SDS011;26418;50.070;8.436;2023-07-28T05:28:13;3.00;;;1.70;;
40729;SDS011;26418;50.070;8.436;2023-07-28T05:30:39;2.42;;;1.30;;
40729;SDS011;26418;50.070;8.436;2023-07-28T05:33:04;2.85;;;1.80;;
40729;SDS011;26418;50.070;8.436;2023-07-28T05:35:30;3.72;;;2.28;;
40729;SDS011;26418;50.070;8.436;2023-07-28T05:37:56;5.13;;;2.28;;
40729;SDS011;26418;50.070;8.436;2023-07-28T05:40:21;3.65;;;1.80;;
40729;SDS011;26418;50.070;8.436;2023-07-28T05:42:47;3.67;;;2.10;;
40729;SDS011;26418;50.070;8.436;2023-07-28T05:45:12;4.25;;;1.63;;
40729;SDS011;26418;50.070;8.436;2023-07-28T05:47:38;3.50;;;2.03;;
40729;SDS011;26418;50.070;8.436;2023-07-28T05:50:04;1.95;;;1.48;;
40729;SDS011;26418;50.070;8.436;2023-07-28T05:52:30;6.05;;;2.38;;
40729;SDS011;26418;50.070;8.436;2023-07-28T05:54:56;4.75;;;2.10;;
40729;SDS011;26418;50.070;8.436;2023-07-28T05:57:21;3.90;;;2.35;;
40729;SDS011;26418;50.070;8.436;2023-07-28T05:59:47;3.80;;;2.22;;
40729;SDS011;26418;50.070;8.436;2023-07-28T06:02:12;2.25;;;1.80;;
40729;SDS011;26418;50.070;8.436;2023-07-28T06:04:38;3.17;;;1.50;;
40729;SDS011;26418;50.070;8.436;2023-07-28T06:07:03;2.63;;;2.10;;
40729;SDS011;26418;50.070;8.436;2023-07-28T06:09:29;3.80;;;1.65;;
40729;SDS011;26418;50.070;8.436;2023-07-28T06:11:55;2.70;;;1.40;;
40729;SDS011;26418;50.070;8.436;2023-07-28T06:14:20;1.83;;;1.70;;
40729;SDS011;26418;50.070;8.436;2023-07-28T06:16:46;6.20;;;1.90;;
40729;SDS011;26418;50.070;8.436;2023-07-28T06:19:12;3.22;;;1.65;;
40729;SDS011;26418;50.070;8.436;2023-07-28T06:21:37;2.55;;;1.58;;
40729;SDS011;26418;50.070;8.436;2023-07-28T06:24:03;2.15;;;1.40;;
40729;SDS011;26418;50.070;8.436;2023-07-28T06:26:28;1.88;;;1.17;;
40729;SDS011;26418;50.070;8.436;2023-07-28T06:28:54;2.38;;;1.55;;
40729;SDS011;26418;50.070;8.436;2023-07-28T06:31:19;2.70;;;1.30;;
40729;SDS011;26418;50.070;8.436;2023-07-28T06:33:46;6.88;;;2.20;;
40729;SDS011;26418;50.070;8.436;2023-07-28T06:36:12;3.97;;;1.67;;
40729;SDS011;26418;50.070;8.436;2023-07-28T06:38:38;2.47;;;1.42;;
40729;SDS011;26418;50.070;8.436;2023-07-28T06:41:04;2.25;;;1.00;;
40729;SDS011;26418;50.070;8.436;2023-07-28T06:43:30;1.70;;;1.30;;
40729;SDS011;26418;50.070;8.436;2023-07-28T06:45:55;4.15;;;1.35;;
40729;SDS011;26418;50.070;8.436;2023-07-28T06:48:21;4.72;;;1.23;;
40729;SDS011;26418;50.070;8.436;2023-07-28T06:50:46;3.95;;;1.00;;
40729;SDS011;26418;50.070;8.436;2023-07-28T06:53:12;1.83;;;1.13;;
40729;SDS011;26418;50.070;8.436;2023-07-28T06:55:38;2.35;;;1.42;;
40729;SDS011;26418;50.070;8.436;2023-07-28T06:58:04;1.65;;;1.08;;
40729;SDS011;26418;50.070;8.436;2023-07-28T07:00:31;3.47;;;1.17;;
40729;SDS011;26418;50.070;8.436;2023-07-28T07:02:57;1.67;;;1.08;;
40729;SDS011;26418;50.070;8.436;2023-07-28T07:05:22;0.88;;;0.70;;
40729;SDS011;26418;50.070;8.436;2023-07-28T07:07:48;1.38;;;0.82;;
40729;SDS011;26418;50.070;8.436;2023-07-28T07:10:14;1.48;;;0.90;;
40729;SDS011;26418;50.070;8.436;2023-07-28T07:12:40;1.85;;;0.75;;
40729;SDS011;26418;50.070;8.436;2023-07-28T07:15:05;3.55;;;0.77;;
40729;SDS011;26418;50.070;8.436;2023-07-28T07:17:32;1.40;;;0.70;;
40729;SDS011;26418;50.070;8.436;2023-07-28T07:19:58;1.00;;;0.70;;
40729;SDS011;26418;50.070;8.436;2023-07-28T07:22:23;3.03;;;1.23;;
40729;SDS011;26418;50.070;8.436;2023-07-28T07:24:49;7.47;;;0.93;;
40729;SDS011;26418;50.070;8.436;2023-07-28T07:27:14;2.95;;;0.68;;
40729;SDS011;26418;50.070;8.436;2023-07-28T07:29:40;2.08;;;0.70;;
40729;SDS011;26418;50.070;8.436;2023-07-28T07:32:06;1.77;;;0.50;;
40729;SDS011;26418;50.070;8.436;2023-07-28T07:34:33;0.98;;;0.73;;
40729;SDS011;26418;50.070;8.436;2023-07-28T07:36:59;0.63;;;0.50;;
40729;SDS011;26418;50.070;8.436;2023-07-28T07:39:25;0.75;;;0.40;;
40729;SDS011;26418;50.070;8.436;2023-07-28T07:41:50;2.67;;;0.77;;
40729;SDS011;26418;50.070;8.436;2023-07-28T07:44:16;1.27;;;0.55;;
40729;SDS011;26418;50.070;8.436;2023-07-28T07:46:41;0.73;;;0.47;;
40729;SDS011;26418;50.070;8.436;2023-07-28T07:49:07;1.08;;;0.73;;
40729;SDS011;26418;50.070;8.436;2023-07-28T07:51:33;0.85;;;0.45;;
40729;SDS011;26418;50.070;8.436;2023-07-28T07:53:59;2.38;;;0.52;;
40729;SDS011;26418;50.070;8.436;2023-07-28T07:56:26;3.15;;;0.38;;
40729;SDS011;26418;50.070;8.436;2023-07-28T07:58:52;1.17;;;0.52;;
40729;SDS011;26418;50.070;8.436;2023-07-28T08:01:18;3.05;;;0.70;;
40729;SDS011;26418;50.070;8.436;2023-07-28T08:03:43;0.57;;;0.40;;
40729;SDS011;26418;50.070;8.436;2023-07-28T08:06:09;1.33;;;0.50;;
40729;SDS011;26418;50.070;8.436;2023-07-28T08:08:36;1.25;;;0.65;;
40729;SDS011;26418;50.070;8.436;2023-07-28T08:11:02;0.70;;;0.55;;
40729;SDS011;26418;50.070;8.436;2023-07-28T08:13:28;0.50;;;0.50;;
40729;SDS011;26418;50.070;8.436;2023-07-28T08:15:53;0.68;;;0.40;;
40729;SDS011;26418;50.070;8.436;2023-07-28T08:18:19;2.10;;;0.50;;
40729;SDS011;26418;50.070;8.436;2023-07-28T08:20:45;1.42;;;0.45;;
40729;SDS011;26418;50.070;8.436;2023-07-28T08:23:10;1.33;;;0.70;;
40729;SDS011;26418;50.070;8.436;2023-07-28T08:25:36;1.52;;;0.50;;
40729;SDS011;26418;50.070;8.436;2023-07-28T08:28:02;2.97;;;0.68;;
40729;SDS011;26418;50.070;8.436;2023-07-28T08:30:27;3.55;;;0.80;;
40729;SDS011;26418;50.070;8.436;2023-07-28T08:32:53;0.70;;;0.55;;
40729;SDS011;26418;50.070;8.436;2023-07-28T08:35:18;2.08;;;0.70;;
40729;SDS011;26418;50.070;8.436;2023-07-28T08:37:44;2.38;;;0.63;;
40729;SDS011;26418;50.070;8.436;2023-07-28T08:40:09;2.05;;;0.73;;
40729;SDS011;26418;50.070;8.436;2023-07-28T08:42:37;5.00;;;1.13;;
40729;SDS011;26418;50.070;8.436;2023-07-28T08:45:03;1.80;;;0.60;;
40729;SDS011;26418;50.070;8.436;2023-07-28T08:47:30;4.68;;;0.82;;
40729;SDS011;26418;50.070;8.436;2023-07-28T08:49:56;1.10;;;0.30;;
40729;SDS011;26418;50.070;8.436;2023-07-28T08:52:22;2.25;;;1.02;;
40729;SDS011;26418;50.070;8.436;2023-07-28T08:54:49;2.17;;;0.70;;
40729;SDS011;26418;50.070;8.436;2023-07-28T08:57:15;4.60;;;0.85;;
40729;SDS011;26418;50.070;8.436;2023-07-28T08:59:41;1.40;;;0.88;;
40729;SDS011;26418;50.070;8.436;2023-07-28T09:02:13;2.97;;;1.25;;
40729;SDS011;26418;50.070;8.436;2023-07-28T09:04:41;4.22;;;0.73;;
40729;SDS011;26418;50.070;8.436;2023-07-28T09:07:10;2.58;;;0.80;;
40729;SDS011;26418;50.070;8.436;2023-07-28T09:09:36;1.05;;;0.63;;
40729;SDS011;26418;50.070;8.436;2023-07-28T09:12:05;5.40;;;0.88;;
40729;SDS011;26418;50.070;8.436;2023-07-28T09:14:33;2.45;;;0.57;;
40729;SDS011;26418;50.070;8.436;2023-07-28T09:17:07;0.93;;;0.40;;
40729;SDS011;26418;50.070;8.436;2023-07-28T09:19:34;1.35;;;0.75;;
40729;SDS011;26418;50.070;8.436;2023-07-28T09:22:00;3.65;;;0.52;;
40729;SDS011;26418;50.070;8.436;2023-07-28T09:24:32;0.40;;;0.30;;
40729;SDS011;26418;50.070;8.436;2023-07-28T09:26:58;1.17;;;0.50;;
40729;SDS011;26418;50.070;8.436;2023-07-28T09:29:26;0.93;;;0.50;;
40729;SDS011;26418;50.070;8.436;2023-07-28T09:32:02;1.10;;;0.50;;
40729;SDS011;26418;50.070;8.436;2023-07-28T09:34:29;0.73;;;0.40;;
40729;SDS011;26418;50.070;8.436;2023-07-28T09:36:56;1.88;;;0.65;;
40729;SDS011;26418;50.070;8.436;2023-07-28T09:39:23;1.38;;;0.70;;
40729;SDS011;26418;50.070;8.436;2023-07-28T09:41:49;0.63;;;0.60;;
40729;SDS011;26418;50.070;8.436;2023-07-28T09:44:15;1.13;;;0.70;;
40729;SDS011;26418;50.070;8.436;2023-07-28T09:46:54;0.43;;;0.38;;
40729;SDS011;26418;50.070;8.436;2023-07-28T09:49:43;1.05;;;0.60;;
40729;SDS011;26418;50.070;8.436;2023-07-28T09:52:09;4.13;;;0.43;;
40729;SDS011;26418;50.070;8.436;2023-07-28T09:54:38;0.40;;;0.40;;
40729;SDS011;26418;50.070;8.436;2023-07-28T09:57:06;1.48;;;0.57;;
40729;SDS011;26418;50.070;8.436;2023-07-28T09:59:40;0.20;;;0.20;;
40729;SDS011;26418;50.070;8.436;2023-07-28T10:02:07;2.40;;;0.60;;
40729;SDS011;26418;50.070;8.436;2023-07-28T10:04:33;0.43;;;0.43;;
40729;SDS011;26418;50.070;8.436;2023-07-28T10:06:59;0.40;;;0.40;;
40729;SDS011;26418;50.070;8.436;2023-07-28T10:09:27;1.50;;;0.68;;
40729;SDS011;26418;50.070;8.436;2023-07-28T10:11:55;2.08;;;0.52;;
40729;SDS011;26418;50.070;8.436;2023-07-28T10:16:57;0.73;;;0.60;;
40729;SDS011;26418;50.070;8.436;2023-07-28T10:19:27;1.00;;;0.60;;
40729;SDS011;26418;50.070;8.436;2023-07-28T10:27:29;3.30;;;0.82;;
40729;SDS011;26418;50.070;8.436;2023-07-28T10:30:11;1.15;;;0.65;;
40729;SDS011;26418;50.070;8.436;2023-07-28T10:32:45;0.47;;;0.40;;
40729;SDS011;26418;50.070;8.436;2023-07-28T10:37:45;2.38;;;0.60;;
40729;SDS011;26418;50.070;8.436;2023-07-28T10:40:33;1.38;;;0.70;;
40729;SDS011;26418;50.070;8.436;2023-07-28T10:43:04;0.68;;;0.68;;
40729;SDS011;26418;50.070;8.436;2023-07-28T10:45:30;1.67;;;0.60;;
40729;SDS011;26418;50.070;8.436;2023-07-28T10:47:57;0.70;;;0.32;;
40729;SDS011;26418;50.070;8.436;2023-07-28T10:50:31;0.95;;;0.57;;
40729;SDS011;26418;50.070;8.436;2023-07-28T10:52:57;1.15;;;0.85;;
40729;SDS011;26418;50.070;8.436;2023-07-28T10:55:24;0.75;;;0.40;;
40729;SDS011;26418;50.070;8.436;2023-07-28T10:57:51;1.42;;;0.50;;
40729;SDS011;26418;50.070;8.436;2023-07-28T11:00:19;0.88;;;0.60;;
40729;SDS011;26418;50.070;8.436;2023-07-28T11:02:50;0.88;;;0.82;;
40729;SDS011;26418;50.070;8.436;2023-07-28T11:07:44;0.95;;;0.85;;
40729;SDS011;26418;50.070;8.436;2023-07-28T11:10:11;1.73;;;0.90;;
40729;SDS011;26418;50.070;8.436;2023-07-28T11:12:41;1.83;;;0.65;;
40729;SDS011;26418;50.070;8.436;2023-07-28T11:15:09;1.83;;;0.70;;
40729;SDS011;26418;50.070;8.436;2023-07-28T11:17:40;1.10;;;0.40;;
40729;SDS011;26418;50.070;8.436;2023-07-28T11:22:46;0.70;;;0.60;;
40729;SDS011;26418;50.070;8.436;2023-07-28T11:25:17;0.60;;;0.60;;
40729;SDS011;26418;50.070;8.436;2023-07-28T11:27:43;0.73;;;0.70;;
40729;SDS011;26418;50.070;8.436;2023-07-28T11:30:16;1.95;;;0.75;;
40729;SDS011;26418;50.070;8.436;2023-07-28T11:32:44;2.47;;;0.80;;
40729;SDS011;26418;50.070;8.436;2023-07-28T11:35:14;1.17;;;0.90;;
40729;SDS011;26418;50.070;8.436;2023-07-28T11:37:42;3.63;;;1.48;;
40729;SDS011;26418;50.070;8.436;2023-07-28T11:40:09;3.15;;;1.00;;
40729;SDS011;26418;50.070;8.436;2023-07-28T11:45:12;1.02;;;0.93;;
40729;SDS011;26418;50.070;8.436;2023-07-28T11:47:40;0.95;;;0.80;;
40729;SDS011;26418;50.070;8.436;2023-07-28T11:50:37;3.63;;;0.70;;
40729;SDS011;26418;50.070;8.436;2023-07-28T11:53:05;2.65;;;0.85;;
40729;SDS011;26418;50.070;8.436;2023-07-28T11:55:31;1.48;;;1.10;;
40729;SDS011;26418;50.070;8.436;2023-07-28T11:57:58;1.98;;;1.02;;
40729;SDS011;26418;50.070;8.436;2023-07-28T12:00:30;1.25;;;1.15;;
40729;SDS011;26418;50.070;8.436;2023-07-28T12:05:34;2.20;;;1.30;;
40729;SDS011;26418;50.070;8.436;2023-07-28T12:08:01;1.90;;;1.05;;
40729;SDS011;26418;50.070;8.436;2023-07-28T12:10:28;2.38;;;1.23;;
40729;SDS011;26418;50.070;8.436;2023-07-28T12:12:54;1.33;;;1.23;;
40729;SDS011;26418;50.070;8.436;2023-07-28T12:15:27;2.38;;;1.77;;
40729;SDS011;26418;50.070;8.436;2023-07-28T12:18:12;2.15;;;1.70;;
40729;SDS011;26418;50.070;8.436;2023-07-28T12:23:11;2.38;;;1.50;;
40729;SDS011;26418;50.070;8.436;2023-07-28T12:25:38;4.35;;;1.75;;
40729;SDS011;26418;50.070;8.436;2023-07-28T12:28:05;2.63;;;1.67;;
40729;SDS011;26418;50.070;8.436;2023-07-28T12:30:32;3.08;;;2.10;;
40729;SDS011;26418;50.070;8.436;2023-07-28T12:32:58;2.83;;;1.50;;
40729;SDS011;26418;50.070;8.436;2023-07-28T12:35:24;2.55;;;1.95;;
40729;SDS011;26418;50.070;8.436;2023-07-28T12:37:51;3.67;;;2.22;;
40729;SDS011;26418;50.070;8.436;2023-07-28T12:40:18;3.25;;;2.05;;
40729;SDS011;26418;50.070;8.436;2023-07-28T12:42:47;2.95;;;2.15;;
40729;SDS011;26418;50.070;8.436;2023-07-28T12:45:13;3.15;;;2.53;;
40729;SDS011;26418;50.070;8.436;2023-07-28T12:47:40;3.83;;;2.60;;
40729;SDS011;26418;50.070;8.436;2023-07-28T12:50:07;3.88;;;2.22;;
40729;SDS011;26418;50.070;8.436;2023-07-28T12:52:33;4.50;;;2.63;;
40729;SDS011;26418;50.070;8.436;2023-07-28T12:54:58;6.03;;;3.05;;
40729;SDS011;26418;50.070;8.436;2023-07-28T12:57:24;5.18;;;2.67;;
40729;SDS011;26418;50.070;8.436;2023-07-28T12:59:50;6.60;;;3.10;;
40729;SDS011;26418;50.070;8.436;2023-07-28T13:02:16;5.10;;;2.80;;
40729;SDS011;26418;50.070;8.436;2023-07-28T13:04:42;2.80;;;2.38;;
40729;SDS011;26418;50.070;8.436;2023-07-28T13:07:08;3.47;;;2.35;;
40729;SDS011;26418;50.070;8.436;2023-07-28T13:09:33;3.75;;;2.22;;
40729;SDS011;26418;50.070;8.436;2023-07-28T13:11:59;4.15;;;2.35;;
40729;SDS011;26418;50.070;8.436;2023-07-28T13:14:24;4.00;;;2.72;;
40729;SDS011;26418;50.070;8.436;2023-07-28T13:16:50;3.75;;;2.67;;
40729;SDS011;26418;50.070;8.436;2023-07-28T13:19:16;3.83;;;2.97;;
40729;SDS011;26418;50.070;8.436;2023-07-28T13:21:41;3.65;;;2.88;;
40729;SDS011;26418;50.070;8.436;2023-07-28T13:24:07;4.13;;;2.78;;
40729;SDS011;26418;50.070;8.436;2023-07-28T13:26:33;4.15;;;3.08;;
40729;SDS011;26418;50.070;8.436;2023-07-28T13:28:58;5.60;;;3.35;;
40729;SDS011;26418;50.070;8.436;2023-07-28T13:31:26;5.13;;;2.90;;
40729;SDS011;26418;50.070;8.436;2023-07-28T13:33:53;3.03;;;2.50;;
40729;SDS011;26418;50.070;8.436;2023-07-28T13:36:19;7.22;;;3.15;;
40729;SDS011;26418;50.070;8.436;2023-07-28T13:38:44;9.30;;;4.20;;
40729;SDS011;26418;50.070;8.436;2023-07-28T13:41:11;5.15;;;3.25;;
40729;SDS011;26418;50.070;8.436;2023-07-28T13:43:36;3.35;;;2.97;;
40729;SDS011;26418;50.070;8.436;2023-07-28T13:46:05;4.03;;;2.78;;
40729;SDS011;26418;50.070;8.436;2023-07-28T13:48:31;7.32;;;3.30;;
40729;SDS011;26418;50.070;8.436;2023-07-28T13:50:57;3.65;;;3.28;;
40729;SDS011;26418;50.070;8.436;2023-07-28T13:53:23;5.22;;;3.28;;
40729;SDS011;26418;50.070;8.436;2023-07-28T13:55:49;4.88;;;3.50;;
40729;SDS011;26418;50.070;8.436;2023-07-28T13:58:15;3.70;;;3.08;;
40729;SDS011;26418;50.070;8.436;2023-07-28T14:00:41;3.72;;;3.00;;
40729;SDS011;26418;50.070;8.436;2023-07-28T14:03:07;3.88;;;3.17;;
40729;SDS011;26418;50.070;8.436;2023-07-28T14:05:32;5.00;;;3.42;;
40729;SDS011;26418;50.070;8.436;2023-07-28T14:07:58;5.53;;;3.50;;
40729;SDS011;26418;50.070;8.436;2023-07-28T14:10:24;3.83;;;3.08;;
40729;SDS011;26418;50.070;8.436;2023-07-28T14:12:49;5.18;;;3.50;;
40729;SDS011;26418;50.070;8.436;2023-07-28T14:15:15;4.65;;;3.40;;
40729;SDS011;26418;50.070;8.436;2023-07-28T14:17:41;6.15;;;3.20;;
40729;SDS011;26418;50.070;8.436;2023-07-28T14:20:07;6.28;;;3.75;;
40729;SDS011;26418;50.070;8.436;2023-07-28T14:22:34;4.78;;;3.50;;
40729;SDS011;26418;50.070;8.436;2023-07-28T14:25:00;3.83;;;2.75;;
40729;SDS011;26418;50.070;8.436;2023-07-28T14:27:26;7.00;;;3.15;;
40729;SDS011;26418;50.070;8.436;2023-07-28T14:29:51;6.60;;;3.20;;
40729;SDS011;26418;50.070;8.436;2023-07-28T14:32:17;4.07;;;3.17;;
40729;SDS011;26418;50.070;8.436;2023-07-28T14:34:42;3.70;;;3.08;;
40729;SDS011;26418;50.070;8.436;2023-07-28T14:37:08;4.68;;;3.42;;
40729;SDS011;26418;50.070;8.436;2023-07-28T14:39:33;4.35;;;2.40;;
40729;SDS011;26418;50.070;8.436;2023-07-28T14:41:59;5.35;;;2.67;;
40729;SDS011;26418;50.070;8.436;2023-07-28T14:44:25;3.20;;;2.30;;
40729;SDS011;26418;50.070;8.436;2023-07-28T14:46:50;5.57;;;3.00;;
40729;SDS011;26418;50.070;8.436;2023-07-28T14:49:16;4.38;;;2.97;;
40729;SDS011;26418;50.070;8.436;2023-07-28T14:51:41;3.60;;;2.80;;
40729;SDS011;26418;50.070;8.436;2023-07-28T14:54:07;2.75;;;2.28;;
40729;SDS011;26418;50.070;8.436;2023-07-28T14:56:33;3.30;;;2.60;;
40729;SDS011;26418;50.070;8.436;2023-07-28T14:58:58;5.20;;;2.05;;
40729;SDS011;26418;50.070;8.436;2023-07-28T15:01:31;2.10;;;1.75;;
40729;SDS011;26418;50.070;8.436;2023-07-28T15:03:59;3.03;;;1.67;;
40729;SDS011;26418;50.070;8.436;2023-07-28T15:06:27;2.25;;;1.92;;
40729;SDS011;26418;50.070;8.436;2023-07-28T15:08:54;3.05;;;2.08;;
40729;SDS011;26418;50.070;8.436;2023-07-28T15:11:20;3.47;;;1.58;;